sensor_id;sensor_type;location;lat;lon;timestamp;temperature;humidity
37204;DHT22;23098;48.054;10.636;2024-03-08T00:00:16;0.20;99.90
37204;DHT22;23098;48.054;10.636;2024-03-08T00:02:47;0.30;99.90
37204;DHT22;23098;48.054;10.636;2024-03-08T00:05:14;0.20;99.90
37204;DHT22;23098;48.054;10.636;2024-03-08T00:07:41;0.20;99.90
37204;DHT22;23098;48.054;10.636;2024-03-08T00:10:08;0.20;99.90
37204;DHT22;23098;48.054;10.636;2024-03-08T00:12:38;0.20;99.90
37204;DHT22;23098;48.054;10.636;2024-03-08T00:15:04;0.20;99.90
37204;DHT22;23098;48.054;10.636;2024-03-08T00:17:29;0.20;99.90
37204;DHT22;23098;48.054;10.636;2024-03-08T00:19:56;0.20;99.90
37204;DHT22;23098;48.054;10.636;2024-03-08T00:22:22;0.20;99.90
37204;DHT22;23098;48.054;10.636;2024-03-08T00:24:48;0.20;99.90
37204;DHT22;23098;48.054;10.636;2024-03-08T00:27:15;0.20;99.90
37204;DHT22;23098;48.054;10.636;2024-03-08T00:29:41;0.20;99.90
37204;DHT22;23098;48.054;10.636;2024-03-08T00:32:06;0.20;99.90
37204;DHT22;23098;48.054;10.636;2024-03-08T00:34:36;0.20;99.90
37204;DHT22;23098;48.054;10.636;2024-03-08T00:37:02;0.10;99.90
37204;DHT22;23098;48.054;10.636;2024-03-08T00:39:29;0.10;99.90
37204;DHT22;23098;48.054;10.636;2024-03-08T00:41:54;0.20;99.90
37204;DHT22;23098;48.054;10.636;2024-03-08T00:44:20;0.10;99.90
37204;DHT22;23098;48.054;10.636;2024-03-08T00:46:45;0.10;99.90
37204;DHT22;23098;48.054;10.636;2024-03-08T00:49:11;0.10;99.90
37204;DHT22;23098;48.054;10.636;2024-03-08T00:51:37;0.10;99.90
37204;DHT22;23098;48.054;10.636;2024-03-08T00:54:03;0.10;99.90
37204;DHT22;23098;48.054;10.636;2024-03-08T00:56:29;0.10;99.90
37204;DHT22;23098;48.054;10.636;2024-03-08T00:58:54;0.10;99.90
37204;DHT22;23098;48.054;10.636;2024-03-08T01:01:20;0.00;99.90
37204;DHT22;23098;48.054;10.636;2024-03-08T01:03:45;0.10;99.90
37204;DHT22;23098;48.054;10.636;2024-03-08T01:06:11;0.00;99.90
37204;DHT22;23098;48.054;10.636;2024-03-08T01:08:37;0.00;99.90
37204;DHT22;23098;48.054;10.636;2024-03-08T01:11:04;0.00;99.90
37204;DHT22;23098;48.054;10.636;2024-03-08T01:13:30;0.00;99.90
37204;DHT22;23098;48.054;10.636;2024-03-08T01:15:55;0.00;99.90
37204;DHT22;23098;48.054;10.636;2024-03-08T01:18:21;-0.10;99.90
37204;DHT22;23098;48.054;10.636;2024-03-08T01:20:47;0.00;99.90
37204;DHT22;23098;48.054;10.636;2024-03-08T01:23:12;-0.10;99.90
37204;DHT22;23098;48.054;10.636;2024-03-08T01:25:38;-0.10;99.90
37204;DHT22;23098;48.054;10.636;2024-03-08T01:28:04;-0.10;99.90
37204;DHT22;23098;48.054;10.636;2024-03-08T01:30:30;-0.10;99.90
37204;DHT22;23098;48.054;10.636;2024-03-08T01:32:58;-0.10;99.90
37204;DHT22;23098;48.054;10.636;2024-03-08T01:35:23;-0.10;99.90
37204;DHT22;23098;48.054;10.636;2024-03-08T01:37:49;-0.10;99.90
37204;DHT22;23098;48.054;10.636;2024-03-08T01:40:15;-0.10;99.90
37204;DHT22;23098;48.054;10.636;2024-03-08T01:42:42;-0.10;99.90
37204;DHT22;23098;48.054;10.636;2024-03-08T01:45:08;0.00;99.90
37204;DHT22;23098;48.054;10.636;2024-03-08T01:47:34;0.00;99.90
37204;DHT22;23098;48.054;10.636;2024-03-08T01:50:00;0.00;99.90
37204;DHT22;23098;48.054;10.636;2024-03-08T01:52:29;0.00;99.90
37204;DHT22;23098;48.054;10.636;2024-03-08T01:54:58;0.00;99.90
37204;DHT22;23098;48.054;10.636;2024-03-08T01:57:26;0.00;99.90
37204;DHT22;23098;48.054;10.636;2024-03-08T01:59:52;0.00;99.90
37204;DHT22;23098;48.054;10.636;2024-03-08T02:02:20;0.00;99.90
37204;DHT22;23098;48.054;10.636;2024-03-08T02:04:46;0.00;99.90
37204;DHT22;23098;48.054;10.636;2024-03-08T02:07:11;0.00;99.90
37204;DHT22;23098;48.054;10.636;2024-03-08T02:09:36;0.10;99.90
37204;DHT22;23098;48.054;10.636;2024-03-08T02:12:02;0.10;99.90
37204;DHT22;23098;48.054;10.636;2024-03-08T02:14:28;0.10;99.90
37204;DHT22;23098;48.054;10.636;2024-03-08T02:16:53;0.10;99.90
37204;DHT22;23098;48.054;10.636;2024-03-08T02:19:19;0.20;99.90
37204;DHT22;23098;48.054;10.636;2024-03-08T02:21:46;0.20;99.90
37204;DHT22;23098;48.054;10.636;2024-03-08T02:24:13;0.20;99.90
37204;DHT22;23098;48.054;10.636;2024-03-08T02:26:38;0.20;99.90
37204;DHT22;23098;48.054;10.636;2024-03-08T02:29:04;0.20;99.90
37204;DHT22;23098;48.054;10.636;2024-03-08T02:31:30;0.20;99.90
37204;DHT22;23098;48.054;10.636;2024-03-08T02:33:56;0.20;99.90
37204;DHT22;23098;48.054;10.636;2024-03-08T02:36:21;0.20;99.90
37204;DHT22;23098;48.054;10.636;2024-03-08T02:38:47;0.20;99.90
37204;DHT22;23098;48.054;10.636;2024-03-08T02:41:12;0.20;99.90
37204;DHT22;23098;48.054;10.636;2024-03-08T02:43:38;0.10;99.90
37204;DHT22;23098;48.054;10.636;2024-03-08T02:46:03;0.10;99.90
37204;DHT22;23098;48.054;10.636;2024-03-08T02:48:30;0.10;99.90
37204;DHT22;23098;48.054;10.636;2024-03-08T02:50:56;0.10;99.90
37204;DHT22;23098;48.054;10.636;2024-03-08T02:53:21;0.20;99.90
37204;DHT22;23098;48.054;10.636;2024-03-08T02:55:47;0.20;99.90
37204;DHT22;23098;48.054;10.636;2024-03-08T02:58:13;0.20;99.90
37204;DHT22;23098;48.054;10.636;2024-03-08T03:00:39;0.20;99.90
37204;DHT22;23098;48.054;10.636;2024-03-08T03:03:06;0.20;99.90
37204;DHT22;23098;48.054;10.636;2024-03-08T03:05:32;0.10;99.90
37204;DHT22;23098;48.054;10.636;2024-03-08T03:07:59;0.20;99.90
37204;DHT22;23098;48.054;10.636;2024-03-08T03:10:25;0.20;99.90
37204;DHT22;23098;48.054;10.636;2024-03-08T03:12:51;0.20;99.90
37204;DHT22;23098;48.054;10.636;2024-03-08T03:15:17;0.20;99.90
37204;DHT22;23098;48.054;10.636;2024-03-08T03:17:47;0.20;99.90
37204;DHT22;23098;48.054;10.636;2024-03-08T03:20:13;0.10;99.90
37204;DHT22;23098;48.054;10.636;2024-03-08T03:22:40;0.10;99.90
37204;DHT22;23098;48.054;10.636;2024-03-08T03:25:12;0.10;99.90
37204;DHT22;23098;48.054;10.636;2024-03-08T03:27:38;0.10;99.90
37204;DHT22;23098;48.054;10.636;2024-03-08T03:30:06;0.20;99.90
37204;DHT22;23098;48.054;10.636;2024-03-08T03:32:49;0.20;99.90
37204;DHT22;23098;48.054;10.636;2024-03-08T03:35:19;0.20;99.90
37204;DHT22;23098;48.054;10.636;2024-03-08T03:37:46;0.20;99.90
37204;DHT22;23098;48.054;10.636;2024-03-08T03:40:27;0.10;99.90
37204;DHT22;23098;48.054;10.636;2024-03-08T03:42:52;0.10;99.90
37204;DHT22;23098;48.054;10.636;2024-03-08T03:45:18;0.10;99.90
37204;DHT22;23098;48.054;10.636;2024-03-08T03:47:45;0.10;99.90
37204;DHT22;23098;48.054;10.636;2024-03-08T03:50:11;0.20;99.90
37204;DHT22;23098;48.054;10.636;2024-03-08T03:52:37;0.10;99.90
37204;DHT22;23098;48.054;10.636;2024-03-08T03:55:03;0.10;99.90
37204;DHT22;23098;48.054;10.636;2024-03-08T03:57:30;0.20;99.90
37204;DHT22;23098;48.054;10.636;2024-03-08T03:59:55;0.20;99.90
37204;DHT22;23098;48.054;10.636;2024-03-08T04:02:22;0.20;99.90
37204;DHT22;23098;48.054;10.636;2024-03-08T04:04:48;0.20;99.90
37204;DHT22;23098;48.054;10.636;2024-03-08T04:07:13;0.10;99.90
37204;DHT22;23098;48.054;10.636;2024-03-08T04:09:39;0.10;99.90
37204;DHT22;23098;48.054;10.636;2024-03-08T04:12:04;0.10;99.90
37204;DHT22;23098;48.054;10.636;2024-03-08T04:14:30;0.10;99.90
37204;DHT22;23098;48.054;10.636;2024-03-08T04:16:56;0.10;99.90
37204;DHT22;23098;48.054;10.636;2024-03-08T04:19:21;0.20;99.90
37204;DHT22;23098;48.054;10.636;2024-03-08T04:21:49;0.10;99.90
37204;DHT22;23098;48.054;10.636;2024-03-08T04:24:14;0.20;99.90
37204;DHT22;23098;48.054;10.636;2024-03-08T04:26:40;0.20;99.90
37204;DHT22;23098;48.054;10.636;2024-03-08T04:29:06;0.20;99.90
37204;DHT22;23098;48.054;10.636;2024-03-08T04:31:32;0.20;99.90
37204;DHT22;23098;48.054;10.636;2024-03-08T04:33:57;0.20;99.90
37204;DHT22;23098;48.054;10.636;2024-03-08T04:36:23;0.20;99.90
37204;DHT22;23098;48.054;10.636;2024-03-08T04:38:50;0.10;99.90
37204;DHT22;23098;48.054;10.636;2024-03-08T04:41:17;0.20;99.90
37204;DHT22;23098;48.054;10.636;2024-03-08T04:43:42;0.10;99.90
37204;DHT22;23098;48.054;10.636;2024-03-08T04:46:08;0.20;99.90
37204;DHT22;23098;48.054;10.636;2024-03-08T04:48:34;0.10;99.90
37204;DHT22;23098;48.054;10.636;2024-03-08T04:51:02;0.10;99.90
37204;DHT22;23098;48.054;10.636;2024-03-08T04:53:27;0.10;99.90
37204;DHT22;23098;48.054;10.636;2024-03-08T04:55:54;0.10;99.90
37204;DHT22;23098;48.054;10.636;2024-03-08T04:58:20;0.00;99.90
37204;DHT22;23098;48.054;10.636;2024-03-08T05:00:46;0.10;99.90
37204;DHT22;23098;48.054;10.636;2024-03-08T05:03:11;0.00;99.90
37204;DHT22;23098;48.054;10.636;2024-03-08T05:05:37;0.10;99.90
37204;DHT22;23098;48.054;10.636;2024-03-08T05:08:03;0.00;99.90
37204;DHT22;23098;48.054;10.636;2024-03-08T05:10:28;0.10;99.90
37204;DHT22;23098;48.054;10.636;2024-03-08T05:12:54;0.00;99.90
37204;DHT22;23098;48.054;10.636;2024-03-08T05:15:19;0.10;99.90
37204;DHT22;23098;48.054;10.636;2024-03-08T05:17:46;0.10;99.90
37204;DHT22;23098;48.054;10.636;2024-03-08T05:20:11;0.10;99.90
37204;DHT22;23098;48.054;10.636;2024-03-08T05:22:38;0.10;99.90
37204;DHT22;23098;48.054;10.636;2024-03-08T05:25:03;0.20;99.90
37204;DHT22;23098;48.054;10.636;2024-03-08T05:27:29;0.10;99.90
37204;DHT22;23098;48.054;10.636;2024-03-08T05:29:54;0.20;99.90
37204;DHT22;23098;48.054;10.636;2024-03-08T05:32:20;0.10;99.90
37204;DHT22;23098;48.054;10.636;2024-03-08T05:34:45;0.10;99.90
37204;DHT22;23098;48.054;10.636;2024-03-08T05:37:11;0.10;99.90
37204;DHT22;23098;48.054;10.636;2024-03-08T05:39:37;0.10;99.90
37204;DHT22;23098;48.054;10.636;2024-03-08T05:42:02;0.10;99.90
37204;DHT22;23098;48.054;10.636;2024-03-08T05:44:28;0.10;99.90
37204;DHT22;23098;48.054;10.636;2024-03-08T05:46:56;0.10;99.90
37204;DHT22;23098;48.054;10.636;2024-03-08T05:49:22;0.20;99.90
37204;DHT22;23098;48.054;10.636;2024-03-08T05:51:47;0.20;99.90
37204;DHT22;23098;48.054;10.636;2024-03-08T05:54:13;0.20;99.90
37204;DHT22;23098;48.054;10.636;2024-03-08T05:56:39;0.20;99.90
37204;DHT22;23098;48.054;10.636;2024-03-08T05:59:08;0.20;99.90
37204;DHT22;23098;48.054;10.636;2024-03-08T06:01:35;0.20;99.90
37204;DHT22;23098;48.054;10.636;2024-03-08T06:04:02;0.20;99.90
37204;DHT22;23098;48.054;10.636;2024-03-08T06:06:28;0.20;99.90
37204;DHT22;23098;48.054;10.636;2024-03-08T06:08:54;0.20;99.90
37204;DHT22;23098;48.054;10.636;2024-03-08T06:11:22;0.20;99.90
37204;DHT22;23098;48.054;10.636;2024-03-08T06:13:48;0.20;99.90
37204;DHT22;23098;48.054;10.636;2024-03-08T06:16:13;0.30;99.90
37204;DHT22;23098;48.054;10.636;2024-03-08T06:18:39;0.30;99.90
37204;DHT22;23098;48.054;10.636;2024-03-08T06:21:05;0.30;99.90
37204;DHT22;23098;48.054;10.636;2024-03-08T06:23:34;0.30;99.90
37204;DHT22;23098;48.054;10.636;2024-03-08T06:26:04;0.30;99.90
37204;DHT22;23098;48.054;10.636;2024-03-08T06:28:29;0.40;99.90
37204;DHT22;23098;48.054;10.636;2024-03-08T06:30:55;0.40;99.90
37204;DHT22;23098;48.054;10.636;2024-03-08T06:33:21;0.40;99.90
37204;DHT22;23098;48.054;10.636;2024-03-08T06:35:46;0.30;99.90
37204;DHT22;23098;48.054;10.636;2024-03-08T06:38:12;0.30;99.90
37204;DHT22;23098;48.054;10.636;2024-03-08T06:40:38;0.30;99.90
37204;DHT22;23098;48.054;10.636;2024-03-08T06:43:03;0.40;99.90
37204;DHT22;23098;48.054;10.636;2024-03-08T06:45:32;0.40;99.90
37204;DHT22;23098;48.054;10.636;2024-03-08T06:47:57;0.40;99.90
37204;DHT22;23098;48.054;10.636;2024-03-08T06:50:23;0.50;99.90
37204;DHT22;23098;48.054;10.636;2024-03-08T06:52:48;0.50;99.90
37204;DHT22;23098;48.054;10.636;2024-03-08T06:55:21;0.40;99.90
37204;DHT22;23098;48.054;10.636;2024-03-08T06:57:48;0.40;99.90
37204;DHT22;23098;48.054;10.636;2024-03-08T07:00:13;0.40;99.90
37204;DHT22;23098;48.054;10.636;2024-03-08T07:02:44;0.40;99.90
37204;DHT22;23098;48.054;10.636;2024-03-08T07:05:11;0.50;99.90
37204;DHT22;23098;48.054;10.636;2024-03-08T07:07:37;0.50;99.90
37204;DHT22;23098;48.054;10.636;2024-03-08T07:10:03;0.50;99.90
37204;DHT22;23098;48.054;10.636;2024-03-08T07:12:29;0.40;99.90
37204;DHT22;23098;48.054;10.636;2024-03-08T07:14:55;0.40;99.90
37204;DHT22;23098;48.054;10.636;2024-03-08T07:17:21;0.50;99.90
37204;DHT22;23098;48.054;10.636;2024-03-08T07:19:46;0.50;99.90
37204;DHT22;23098;48.054;10.636;2024-03-08T07:22:12;0.50;99.90
37204;DHT22;23098;48.054;10.636;2024-03-08T07:24:37;0.60;99.90
37204;DHT22;23098;48.054;10.636;2024-03-08T07:27:18;0.60;99.90
37204;DHT22;23098;48.054;10.636;2024-03-08T07:29:43;0.70;99.90
37204;DHT22;23098;48.054;10.636;2024-03-08T07:32:10;0.60;99.90
37204;DHT22;23098;48.054;10.636;2024-03-08T07:34:45;0.60;99.90
37204;DHT22;23098;48.054;10.636;2024-03-08T07:37:10;0.60;99.90
37204;DHT22;23098;48.054;10.636;2024-03-08T07:39:37;0.50;99.90
37204;DHT22;23098;48.054;10.636;2024-03-08T07:42:03;0.50;99.90
37204;DHT22;23098;48.054;10.636;2024-03-08T07:44:29;0.60;99.90
37204;DHT22;23098;48.054;10.636;2024-03-08T07:46:56;0.70;99.90
37204;DHT22;23098;48.054;10.636;2024-03-08T07:49:21;0.50;99.90
37204;DHT22;23098;48.054;10.636;2024-03-08T07:51:47;0.60;99.90
37204;DHT22;23098;48.054;10.636;2024-03-08T07:54:14;0.60;99.90
37204;DHT22;23098;48.054;10.636;2024-03-08T07:56:39;0.60;99.90
37204;DHT22;23098;48.054;10.636;2024-03-08T07:59:05;0.60;99.90
37204;DHT22;23098;48.054;10.636;2024-03-08T08:01:30;0.70;99.90
37204;DHT22;23098;48.054;10.636;2024-03-08T08:03:56;0.70;99.90
37204;DHT22;23098;48.054;10.636;2024-03-08T08:06:22;0.60;99.90
37204;DHT22;23098;48.054;10.636;2024-03-08T08:08:47;0.80;99.90
37204;DHT22;23098;48.054;10.636;2024-03-08T08:11:13;0.70;99.90
37204;DHT22;23098;48.054;10.636;2024-03-08T08:13:41;0.80;99.90
37204;DHT22;23098;48.054;10.636;2024-03-08T08:16:08;0.80;99.90
37204;DHT22;23098;48.054;10.636;2024-03-08T08:18:34;0.90;99.90
37204;DHT22;23098;48.054;10.636;2024-03-08T08:21:04;0.90;99.90
37204;DHT22;23098;48.054;10.636;2024-03-08T08:23:32;0.70;99.90
37204;DHT22;23098;48.054;10.636;2024-03-08T08:25:57;0.60;99.90
37204;DHT22;23098;48.054;10.636;2024-03-08T08:28:23;0.70;99.90
37204;DHT22;23098;48.054;10.636;2024-03-08T08:30:49;0.70;99.90
37204;DHT22;23098;48.054;10.636;2024-03-08T08:33:15;0.80;99.90
37204;DHT22;23098;48.054;10.636;2024-03-08T08:35:41;0.80;99.90
37204;DHT22;23098;48.054;10.636;2024-03-08T08:38:08;0.90;99.90
37204;DHT22;23098;48.054;10.636;2024-03-08T08:40:34;0.80;99.90
37204;DHT22;23098;48.054;10.636;2024-03-08T08:43:01;0.90;99.90
37204;DHT22;23098;48.054;10.636;2024-03-08T08:45:30;0.90;99.90
37204;DHT22;23098;48.054;10.636;2024-03-08T08:47:55;0.90;99.90
37204;DHT22;23098;48.054;10.636;2024-03-08T08:50:21;1.00;99.90
37204;DHT22;23098;48.054;10.636;2024-03-08T08:52:49;0.90;99.90
37204;DHT22;23098;48.054;10.636;2024-03-08T08:55:15;0.90;99.90
37204;DHT22;23098;48.054;10.636;2024-03-08T08:57:42;1.00;99.90
37204;DHT22;23098;48.054;10.636;2024-03-08T09:00:08;1.00;99.90
37204;DHT22;23098;48.054;10.636;2024-03-08T09:02:36;1.10;99.90
37204;DHT22;23098;48.054;10.636;2024-03-08T09:05:03;1.00;99.90
37204;DHT22;23098;48.054;10.636;2024-03-08T09:07:29;1.10;99.90
37204;DHT22;23098;48.054;10.636;2024-03-08T09:09:54;1.10;99.90
37204;DHT22;23098;48.054;10.636;2024-03-08T09:12:23;1.10;99.90
37204;DHT22;23098;48.054;10.636;2024-03-08T09:14:49;1.10;99.90
37204;DHT22;23098;48.054;10.636;2024-03-08T09:17:15;1.00;99.90
37204;DHT22;23098;48.054;10.636;2024-03-08T09:19:46;1.20;99.90
37204;DHT22;23098;48.054;10.636;2024-03-08T09:22:13;1.20;99.90
37204;DHT22;23098;48.054;10.636;2024-03-08T09:24:38;1.20;99.90
37204;DHT22;23098;48.054;10.636;2024-03-08T09:27:04;1.40;99.90
37204;DHT22;23098;48.054;10.636;2024-03-08T09:29:29;1.40;99.90
37204;DHT22;23098;48.054;10.636;2024-03-08T09:31:55;1.30;99.90
37204;DHT22;23098;48.054;10.636;2024-03-08T09:34:21;1.60;99.90
37204;DHT22;23098;48.054;10.636;2024-03-08T09:36:48;1.40;99.90
37204;DHT22;23098;48.054;10.636;2024-03-08T09:39:13;1.60;99.90
37204;DHT22;23098;48.054;10.636;2024-03-08T09:41:43;1.50;99.90
37204;DHT22;23098;48.054;10.636;2024-03-08T09:44:09;1.60;99.90
37204;DHT22;23098;48.054;10.636;2024-03-08T09:46:36;1.50;99.90
37204;DHT22;23098;48.054;10.636;2024-03-08T09:49:02;1.50;99.90
37204;DHT22;23098;48.054;10.636;2024-03-08T09:51:29;1.40;99.90
37204;DHT22;23098;48.054;10.636;2024-03-08T09:53:57;1.40;99.90
37204;DHT22;23098;48.054;10.636;2024-03-08T09:56:23;1.50;99.90
37204;DHT22;23098;48.054;10.636;2024-03-08T09:58:49;1.60;99.90
37204;DHT22;23098;48.054;10.636;2024-03-08T10:01:33;1.50;99.90
37204;DHT22;23098;48.054;10.636;2024-03-08T10:03:59;1.70;99.90
37204;DHT22;23098;48.054;10.636;2024-03-08T10:06:24;1.60;99.90
37204;DHT22;23098;48.054;10.636;2024-03-08T10:08:50;1.80;99.90
37204;DHT22;23098;48.054;10.636;2024-03-08T10:11:19;1.80;99.90
37204;DHT22;23098;48.054;10.636;2024-03-08T10:13:47;2.00;99.90
37204;DHT22;23098;48.054;10.636;2024-03-08T10:16:13;1.80;99.90
37204;DHT22;23098;48.054;10.636;2024-03-08T10:18:38;1.80;99.90
37204;DHT22;23098;48.054;10.636;2024-03-08T10:21:08;1.80;99.90
37204;DHT22;23098;48.054;10.636;2024-03-08T10:23:36;2.00;99.90
37204;DHT22;23098;48.054;10.636;2024-03-08T10:26:18;2.00;99.90
37204;DHT22;23098;48.054;10.636;2024-03-08T10:28:50;1.90;99.90
37204;DHT22;23098;48.054;10.636;2024-03-08T10:31:16;2.10;99.90
37204;DHT22;23098;48.054;10.636;2024-03-08T10:33:42;2.20;99.90
37204;DHT22;23098;48.054;10.636;2024-03-08T10:36:08;1.90;99.90
37204;DHT22;23098;48.054;10.636;2024-03-08T10:38:37;1.90;99.90
37204;DHT22;23098;48.054;10.636;2024-03-08T10:41:07;1.80;99.90
37204;DHT22;23098;48.054;10.636;2024-03-08T10:43:52;2.00;99.90
37204;DHT22;23098;48.054;10.636;2024-03-08T10:46:37;2.00;99.90
37204;DHT22;23098;48.054;10.636;2024-03-08T10:49:14;2.10;99.90
37204;DHT22;23098;48.054;10.636;2024-03-08T10:51:41;2.10;99.90
37204;DHT22;23098;48.054;10.636;2024-03-08T10:54:09;2.30;99.90
37204;DHT22;23098;48.054;10.636;2024-03-08T10:56:35;2.40;99.90
37204;DHT22;23098;48.054;10.636;2024-03-08T10:59:01;2.80;99.90
37204;DHT22;23098;48.054;10.636;2024-03-08T11:01:29;3.00;99.90
37204;DHT22;23098;48.054;10.636;2024-03-08T11:03:55;2.60;99.90
37204;DHT22;23098;48.054;10.636;2024-03-08T11:06:42;2.80;99.90
37204;DHT22;23098;48.054;10.636;2024-03-08T11:09:30;2.90;99.90
37204;DHT22;23098;48.054;10.636;2024-03-08T11:12:18;3.00;99.90
37204;DHT22;23098;48.054;10.636;2024-03-08T11:14:45;2.50;99.90
37204;DHT22;23098;48.054;10.636;2024-03-08T11:17:14;2.60;99.90
37204;DHT22;23098;48.054;10.636;2024-03-08T11:19:46;2.70;99.90
37204;DHT22;23098;48.054;10.636;2024-03-08T11:22:26;2.80;99.90
37204;DHT22;23098;48.054;10.636;2024-03-08T11:24:53;2.80;99.90
37204;DHT22;23098;48.054;10.636;2024-03-08T11:27:19;3.50;99.90
37204;DHT22;23098;48.054;10.636;2024-03-08T11:30:02;4.50;99.90
37204;DHT22;23098;48.054;10.636;2024-03-08T11:32:38;4.50;99.90
37204;DHT22;23098;48.054;10.636;2024-03-08T11:35:08;3.70;99.90
37204;DHT22;23098;48.054;10.636;2024-03-08T11:37:44;4.60;99.90
37204;DHT22;23098;48.054;10.636;2024-03-08T11:40:13;5.80;99.90
37204;DHT22;23098;48.054;10.636;2024-03-08T11:42:46;4.70;99.90
37204;DHT22;23098;48.054;10.636;2024-03-08T11:45:18;5.00;99.90
37204;DHT22;23098;48.054;10.636;2024-03-08T11:47:46;5.10;99.90
37204;DHT22;23098;48.054;10.636;2024-03-08T11:50:15;5.30;99.90
37204;DHT22;23098;48.054;10.636;2024-03-08T11:52:41;4.90;99.90
37204;DHT22;23098;48.054;10.636;2024-03-08T11:55:08;4.80;99.90
37204;DHT22;23098;48.054;10.636;2024-03-08T11:57:34;4.80;99.90
37204;DHT22;23098;48.054;10.636;2024-03-08T12:00:00;4.90;99.90
37204;DHT22;23098;48.054;10.636;2024-03-08T12:02:33;5.10;99.90
37204;DHT22;23098;48.054;10.636;2024-03-08T12:05:01;5.90;99.90
37204;DHT22;23098;48.054;10.636;2024-03-08T12:07:29;6.00;99.90
37204;DHT22;23098;48.054;10.636;2024-03-08T12:10:20;6.00;99.90
37204;DHT22;23098;48.054;10.636;2024-03-08T12:12:51;5.80;99.90
37204;DHT22;23098;48.054;10.636;2024-03-08T12:15:18;5.60;99.90
37204;DHT22;23098;48.054;10.636;2024-03-08T12:17:45;6.10;99.90
37204;DHT22;23098;48.054;10.636;2024-03-08T12:22:43;6.10;99.90
37204;DHT22;23098;48.054;10.636;2024-03-08T12:25:11;6.40;99.90
37204;DHT22;23098;48.054;10.636;2024-03-08T12:27:38;6.70;99.90
37204;DHT22;23098;48.054;10.636;2024-03-08T12:30:20;7.10;99.90
37204;DHT22;23098;48.054;10.636;2024-03-08T12:32:57;7.30;99.90
37204;DHT22;23098;48.054;10.636;2024-03-08T12:35:26;7.60;99.90
37204;DHT22;23098;48.054;10.636;2024-03-08T12:37:59;7.70;99.90
37204;DHT22;23098;48.054;10.636;2024-03-08T12:40:27;7.70;99.90
37204;DHT22;23098;48.054;10.636;2024-03-08T12:42:59;7.50;99.90
37204;DHT22;23098;48.054;10.636;2024-03-08T12:45:25;7.20;99.90
37204;DHT22;23098;48.054;10.636;2024-03-08T12:47:51;7.70;99.90
37204;DHT22;23098;48.054;10.636;2024-03-08T12:50:18;7.80;99.60
37204;DHT22;23098;48.054;10.636;2024-03-08T12:52:44;7.90;99.40
37204;DHT22;23098;48.054;10.636;2024-03-08T12:55:09;8.40;98.80
37204;DHT22;23098;48.054;10.636;2024-03-08T12:57:36;8.20;98.40
37204;DHT22;23098;48.054;10.636;2024-03-08T13:00:04;8.60;98.20
37204;DHT22;23098;48.054;10.636;2024-03-08T13:02:30;9.00;97.60
37204;DHT22;23098;48.054;10.636;2024-03-08T13:04:57;8.90;97.50
37204;DHT22;23098;48.054;10.636;2024-03-08T13:07:23;8.70;97.40
37204;DHT22;23098;48.054;10.636;2024-03-08T13:09:54;8.80;96.50
37204;DHT22;23098;48.054;10.636;2024-03-08T13:12:21;8.90;96.30
37204;DHT22;23098;48.054;10.636;2024-03-08T13:14:47;9.00;95.70
37204;DHT22;23098;48.054;10.636;2024-03-08T13:17:14;9.50;97.20
37204;DHT22;23098;48.054;10.636;2024-03-08T13:19:40;9.40;95.90
37204;DHT22;23098;48.054;10.636;2024-03-08T13:22:06;9.50;96.50
37204;DHT22;23098;48.054;10.636;2024-03-08T13:24:32;10.50;95.80
37204;DHT22;23098;48.054;10.636;2024-03-08T13:27:01;9.20;94.80
37204;DHT22;23098;48.054;10.636;2024-03-08T13:29:27;9.60;95.50
37204;DHT22;23098;48.054;10.636;2024-03-08T13:31:52;9.70;95.90
37204;DHT22;23098;48.054;10.636;2024-03-08T13:34:21;10.40;95.90
37204;DHT22;23098;48.054;10.636;2024-03-08T13:36:53;9.80;94.80
37204;DHT22;23098;48.054;10.636;2024-03-08T13:39:25;9.40;95.20
37204;DHT22;23098;48.054;10.636;2024-03-08T13:41:51;10.10;95.40
37204;DHT22;23098;48.054;10.636;2024-03-08T13:44:16;9.80;94.50
37204;DHT22;23098;48.054;10.636;2024-03-08T13:46:42;9.90;95.10
37204;DHT22;23098;48.054;10.636;2024-03-08T13:49:08;10.10;94.70
37204;DHT22;23098;48.054;10.636;2024-03-08T13:51:35;9.80;94.80
37204;DHT22;23098;48.054;10.636;2024-03-08T13:54:01;9.90;95.20
37204;DHT22;23098;48.054;10.636;2024-03-08T13:56:27;9.90;95.10
37204;DHT22;23098;48.054;10.636;2024-03-08T13:58:56;10.40;94.50
37204;DHT22;23098;48.054;10.636;2024-03-08T14:01:22;9.80;94.30
37204;DHT22;23098;48.054;10.636;2024-03-08T14:03:48;10.30;94.50
37204;DHT22;23098;48.054;10.636;2024-03-08T14:06:14;10.10;94.20
37204;DHT22;23098;48.054;10.636;2024-03-08T14:08:40;9.80;94.60
37204;DHT22;23098;48.054;10.636;2024-03-08T14:11:06;9.90;94.20
37204;DHT22;23098;48.054;10.636;2024-03-08T14:13:42;9.80;94.40
37204;DHT22;23098;48.054;10.636;2024-03-08T14:16:13;9.80;94.50
37204;DHT22;23098;48.054;10.636;2024-03-08T14:18:39;9.70;94.90
37204;DHT22;23098;48.054;10.636;2024-03-08T14:21:05;10.00;94.00
37204;DHT22;23098;48.054;10.636;2024-03-08T14:23:30;9.90;94.60
37204;DHT22;23098;48.054;10.636;2024-03-08T14:25:56;9.80;94.70
37204;DHT22;23098;48.054;10.636;2024-03-08T14:28:25;9.80;94.90
37204;DHT22;23098;48.054;10.636;2024-03-08T14:30:52;9.50;95.00
37204;DHT22;23098;48.054;10.636;2024-03-08T14:33:18;10.00;95.50
37204;DHT22;23098;48.054;10.636;2024-03-08T14:35:44;9.80;95.10
37204;DHT22;23098;48.054;10.636;2024-03-08T14:38:11;9.60;95.50
37204;DHT22;23098;48.054;10.636;2024-03-08T14:40:38;9.60;95.60
37204;DHT22;23098;48.054;10.636;2024-03-08T14:43:04;9.50;94.80
37204;DHT22;23098;48.054;10.636;2024-03-08T14:45:31;9.70;94.60
37204;DHT22;23098;48.054;10.636;2024-03-08T14:47:57;9.70;94.70
37204;DHT22;23098;48.054;10.636;2024-03-08T14:50:24;9.80;94.90
37204;DHT22;23098;48.054;10.636;2024-03-08T14:52:50;9.70;94.50
37204;DHT22;23098;48.054;10.636;2024-03-08T14:55:16;9.80;94.90
37204;DHT22;23098;48.054;10.636;2024-03-08T14:57:43;9.40;94.70
37204;DHT22;23098;48.054;10.636;2024-03-08T15:00:13;9.40;94.40
37204;DHT22;23098;48.054;10.636;2024-03-08T15:02:43;9.50;94.80
37204;DHT22;23098;48.054;10.636;2024-03-08T15:05:09;9.50;94.60
37204;DHT22;23098;48.054;10.636;2024-03-08T15:07:37;9.50;94.60
37204;DHT22;23098;48.054;10.636;2024-03-08T15:10:07;9.60;94.80
37204;DHT22;23098;48.054;10.636;2024-03-08T15:12:37;9.50;95.10
37204;DHT22;23098;48.054;10.636;2024-03-08T15:15:08;9.30;94.70
37204;DHT22;23098;48.054;10.636;2024-03-08T15:17:37;9.40;95.20
37204;DHT22;23098;48.054;10.636;2024-03-08T15:20:08;9.40;95.80
37204;DHT22;23098;48.054;10.636;2024-03-08T15:22:47;9.20;95.60
37204;DHT22;23098;48.054;10.636;2024-03-08T15:25:12;9.30;95.80
37204;DHT22;23098;48.054;10.636;2024-03-08T15:27:48;9.20;95.30
37204;DHT22;23098;48.054;10.636;2024-03-08T15:30:14;9.10;95.40
37204;DHT22;23098;48.054;10.636;2024-03-08T15:32:48;9.10;95.10